Tindbinbilla Nature Res, New South Wales

4:21 PM AEST on July 08, 2015 (GMT +1000)
Bonython | | Change Station
CLOSE
Current Station
Personal Weather Station
Location: Bonython, AUSTRALIAN CAPITAL TERRITORY
Elevation: 1886 ft
Nearby Weather Stations

Elev 1886 ft 35.43 °S, 149.08 °E | Updated 1 minute ago

Partly Cloudy
Partly Cloudy
54.8 °F
Feels Like 54.8 °F
N
1.0
Wind Variable Wind from NE
Gusts 2.0 mph

Today
High -- | Low -- °F
--% Chance of Precip.
Yesterday
High -- | Low -- °F
Precip. -- in
7:13 AM 5:05 PM
Waning Gibbous, 57% visible
Pressure 30.30 in
Visibility 6.2 miles
Clouds Few 4000 ft
Dew Point 34 °F
Humidity 46%
Rainfall -999.00 in
Snow Depth Not available.
UV 1 out of 12
Pollen Not available.
Air Quality Not available.
Flu Activity Not available.
METAR YSCB 080600Z 31003KT 9999 FEW040 11/M00 Q1026 NOSIG

More Conditions Fewer Conditions

Pressure 30.30 in
Visibility 6.2 miles
Clouds Few 4000 ft
Dew Point 34 °F
Humidity 46%
Rainfall -999.00 in
Snow Depth Not available.
UV 1 out of 12
Pollen Not available.
Air Quality Not available.
Flu Activity Not available.
METAR YSCB 080600Z 31003KT 9999 FEW040 11/M00 Q1026 NOSIG

More Conditions Fewer Conditions

10-Day Weather Forecast

×

Almanac

Astronomy

Jul. 08, 2015 Rise Set
Actual Time
Civil Twilight
Nautical Twilight
Astronomical Twilight
Moon
Length of Visible Light
Length of Day
Tomorrow will be .
, % of the Moon is Illuminated

Today's Extremes

Country Highs Country Lows

Community

WunderPhotos

Upload Photos

1,836,064 photos uploaded!

WunderBlogs® & News

Nearby

Air Quality

  Air Quality AQ Index Pollutant
Not available.

Snow Depth

Station Depth Elevation

Earthquake Activity

City Distance Mag. Time & Date
Minimum magnitude displayed is 2.5.

Coastal Water Temperatures

Place Temperature

Stations

Nearby Weather Stations

Station Location Temp. Windchill Dew Point Humidity Wind Precip. Elev Updated Type